Portada
METAR-TAF:

METAR-TAF

Aeropuertos :

Ljungbyhed, Suecia

latitud: 56-04N, longitud: 013-12E, altitud: 43 m

Observación

El informe se hizo hace 16 minutos, a las 21:50 UTC
Viento 6 kt del este-sureste
Temperatura 18°C
Humedad 64%
Presión 1024 hPa
Visibilidad 10 km o más

METAR: ESTL 062150Z AUTO 11006KT 9999 NCD 18/11 Q1024

Hora: 00:06 (22:06 UTC)

Pronóstico

El informe se hizo hace 11 horas y 4 minutos, a las 11:02 UTC
Pronóstico válido del 06 a las 12 UTC al 06 a las 15 UTC
Viento 5 kt del sur
Visibilidad 10 km o más
sin nubes por debajo de 1500 m y sin presencia de cumulonimbus.

TAF: ESTL 061102Z 0612/0615 17005KT CAVOK

Observaciones y pronósticos meteorológicos de más de 4000 aeropuertos (mensajes METAR y TAF).

Los puntos amarillos y rojos representan las estaciones disponibles.

Ponga el ratón en el punto deseado para ver el nombre de la estación.

Haga clic para ver las observaciones y los pronósticos meteorológicos.

Para cambiar el mapa : haga clic en los botones verdes con una cruz de color negro para hacer un zoom, en el botón verde con un guión para alejar o en las flechas verdes para mapas adyacentes.


METAR-TAF: